METAR Data
IDs: Format: Raw Decoded Include TAF

Data at: 1209 UTC 07 Oct 2022

SCEL 071200Z 34004KT 8000 NSC 12/06 Q1018 NOSIG